KOGA

Searle Field Airport

Ogallala, Nebraska, USA
METAR KOGA 230855Z AUTO 00000KT 10SM CLR 01/M01 A3029 RMK AO2 T00111009
Observed Flight Rules
Oct-23 @ 08:55 UTC (44 minutes ago) Visual Flight Rules
Visibility Clouds
10 miles
  • Clear skies
Temperatures Readings
Current 1°C / 34°F
Dewpoint -1°C / 30°F
Humidity 87%
Altimeter 30.29" Hg
Pressure 1026 hPa
Elevation 999
METAR KOGA 230855Z AUTO 00000KT 10SM CLR 01/M01 A3029 RMK AO2 T00111009
Observed Flight Rules
Oct-23 @ 08:55 UTC
(44 minutes ago)
VFR
Clouds
  • Clear skies
Temperature Dewpoint
1°C / 34°F -1°C / 30°F
Humidity Altimeter Pressure
87% 30.29" Hg 1026 hPa